sensor_id;sensor_type;location;lat;lon;timestamp;pressure;altitude;pressure_sealevel;temperature;humidity
57086;BME280;42964;42.910;23.792;2022-08-19T00:04:41;97272.59;;;19.77;68.81
57086;BME280;42964;42.910;23.792;2022-08-19T00:09:40;97285.97;;;19.73;69.25
57086;BME280;42964;42.910;23.792;2022-08-19T00:14:39;97297.91;;;19.61;69.52
57086;BME280;42964;42.910;23.792;2022-08-19T00:19:39;97280.81;;;19.30;69.89
57086;BME280;42964;42.910;23.792;2022-08-19T00:24:39;97291.84;;;19.18;70.57
57086;BME280;42964;42.910;23.792;2022-08-19T00:29:39;97304.31;;;18.92;70.83
57086;BME280;42964;42.910;23.792;2022-08-19T00:34:38;97302.22;;;18.80;71.18
57086;BME280;42964;42.910;23.792;2022-08-19T00:39:38;97295.38;;;18.76;71.22
57086;BME280;42964;42.910;23.792;2022-08-19T00:44:37;97290.25;;;18.73;71.63
57086;BME280;42964;42.910;23.792;2022-08-19T00:49:47;97286.03;;;18.69;72.41
57086;BME280;42964;42.910;23.792;2022-08-19T00:54:51;97292.59;;;18.57;73.32
57086;BME280;42964;42.910;23.792;2022-08-19T00:59:52;97279.78;;;18.49;73.25
57086;BME280;42964;42.910;23.792;2022-08-19T01:04:53;97286.75;;;18.50;73.06
57086;BME280;42964;42.910;23.792;2022-08-19T01:09:52;97278.28;;;18.44;73.04
57086;BME280;42964;42.910;23.792;2022-08-19T01:14:52;97288.59;;;18.48;73.20
57086;BME280;42964;42.910;23.792;2022-08-19T01:19:51;97290.34;;;18.48;73.23
57086;BME280;42964;42.910;23.792;2022-08-19T01:24:51;97285.09;;;18.48;73.35
57086;BME280;42964;42.910;23.792;2022-08-19T01:29:50;97285.16;;;18.46;73.91
57086;BME280;42964;42.910;23.792;2022-08-19T01:34:49;97287.91;;;18.43;74.28
57086;BME280;42964;42.910;23.792;2022-08-19T01:39:48;97288.97;;;18.39;74.53
57086;BME280;42964;42.910;23.792;2022-08-19T01:44:46;97279.47;;;18.35;74.70
57086;BME280;42964;42.910;23.792;2022-08-19T01:49:45;97277.88;;;18.31;74.79
57086;BME280;42964;42.910;23.792;2022-08-19T01:54:45;97279.72;;;18.29;74.69
57086;BME280;42964;42.910;23.792;2022-08-19T01:59:44;97285.72;;;18.32;74.65
57086;BME280;42964;42.910;23.792;2022-08-19T02:04:43;97288.53;;;18.28;75.16
57086;BME280;42964;42.910;23.792;2022-08-19T02:09:44;97283.94;;;18.11;76.33
57086;BME280;42964;42.910;23.792;2022-08-19T02:14:43;97290.84;;;18.13;76.10
57086;BME280;42964;42.910;23.792;2022-08-19T02:19:42;97294.63;;;18.06;76.53
57086;BME280;42964;42.910;23.792;2022-08-19T02:24:40;97290.78;;;17.91;77.25
57086;BME280;42964;42.910;23.792;2022-08-19T02:29:40;97300.69;;;17.85;77.27
57086;BME280;42964;42.910;23.792;2022-08-19T02:34:40;97297.66;;;17.70;77.64
57086;BME280;42964;42.910;23.792;2022-08-19T02:39:39;97303.63;;;17.75;77.63
57086;BME280;42964;42.910;23.792;2022-08-19T02:44:38;97310.59;;;17.75;77.75
57086;BME280;42964;42.910;23.792;2022-08-19T02:49:37;97314.03;;;17.53;78.59
57086;BME280;42964;42.910;23.792;2022-08-19T02:54:36;97316.09;;;17.45;78.63
57086;BME280;42964;42.910;23.792;2022-08-19T02:59:36;97326.91;;;17.36;78.48
57086;BME280;42964;42.910;23.792;2022-08-19T03:04:35;97318.50;;;17.26;78.93
57086;BME280;42964;42.910;23.792;2022-08-19T03:09:35;97334.47;;;17.19;79.40
57086;BME280;42964;42.910;23.792;2022-08-19T03:14:35;97329.81;;;17.02;80.30
57086;BME280;42964;42.910;23.792;2022-08-19T03:19:34;97340.59;;;16.92;80.43
57086;BME280;42964;42.910;23.792;2022-08-19T03:24:34;97341.53;;;16.91;80.29
57086;BME280;42964;42.910;23.792;2022-08-19T03:29:32;97339.72;;;16.93;80.39
57086;BME280;42964;42.910;23.792;2022-08-19T03:34:37;97341.38;;;16.96;80.36
57086;BME280;42964;42.910;23.792;2022-08-19T03:39:39;97343.06;;;16.97;80.63
57086;BME280;42964;42.910;23.792;2022-08-19T03:44:38;97346.50;;;16.99;80.67
57086;BME280;42964;42.910;23.792;2022-08-19T03:49:37;97342.88;;;17.03;80.68
57086;BME280;42964;42.910;23.792;2022-08-19T03:54:37;97348.84;;;17.07;80.82
57086;BME280;42964;42.910;23.792;2022-08-19T03:59:37;97350.34;;;17.14;80.68
57086;BME280;42964;42.910;23.792;2022-08-19T04:04:42;97351.78;;;17.24;80.63
57086;BME280;42964;42.910;23.792;2022-08-19T04:09:41;97358.56;;;17.30;81.01
57086;BME280;42964;42.910;23.792;2022-08-19T04:14:40;97356.78;;;17.30;81.27
57086;BME280;42964;42.910;23.792;2022-08-19T04:19:40;97364.19;;;17.19;81.65
57086;BME280;42964;42.910;23.792;2022-08-19T04:24:39;97361.00;;;17.09;82.02
57086;BME280;42964;42.910;23.792;2022-08-19T04:29:38;97362.25;;;16.98;82.17
57086;BME280;42964;42.910;23.792;2022-08-19T04:34:38;97375.38;;;16.98;82.42
57086;BME280;42964;42.910;23.792;2022-08-19T04:39:38;97372.81;;;16.96;82.47
57086;BME280;42964;42.910;23.792;2022-08-19T04:44:56;97369.53;;;17.16;81.77
57086;BME280;42964;42.910;23.792;2022-08-19T04:49:55;97356.78;;;17.30;81.22
57086;BME280;42964;42.910;23.792;2022-08-19T04:54:54;97369.81;;;17.59;80.59
57086;BME280;42964;42.910;23.792;2022-08-19T04:59:55;97369.28;;;17.74;80.14
57086;BME280;42964;42.910;23.792;2022-08-19T05:04:58;97363.69;;;17.85;79.81
57086;BME280;42964;42.910;23.792;2022-08-19T05:10:00;97358.47;;;18.07;79.31
57086;BME280;42964;42.910;23.792;2022-08-19T05:14:59;97376.81;;;18.32;78.82
57086;BME280;42964;42.910;23.792;2022-08-19T05:19:59;97380.06;;;18.60;77.73
57086;BME280;42964;42.910;23.792;2022-08-19T05:25:18;97374.13;;;18.79;76.85
57086;BME280;42964;42.910;23.792;2022-08-19T05:30:18;97380.88;;;19.07;76.53
57086;BME280;42964;42.910;23.792;2022-08-19T05:35:18;97374.34;;;19.37;75.60
57086;BME280;42964;42.910;23.792;2022-08-19T05:40:17;97381.28;;;19.60;74.44
57086;BME280;42964;42.910;23.792;2022-08-19T05:45:16;97371.31;;;19.87;73.47
57086;BME280;42964;42.910;23.792;2022-08-19T05:50:15;97368.91;;;20.21;72.75
57086;BME280;42964;42.910;23.792;2022-08-19T05:55:16;97369.53;;;20.46;71.38
57086;BME280;42964;42.910;23.792;2022-08-19T06:00:15;97368.38;;;20.71;70.76
57086;BME280;42964;42.910;23.792;2022-08-19T06:05:14;97376.25;;;20.90;69.25
57086;BME280;42964;42.910;23.792;2022-08-19T06:10:14;97363.63;;;21.14;67.34
57086;BME280;42964;42.910;23.792;2022-08-19T06:15:14;97368.31;;;21.44;66.98
57086;BME280;42964;42.910;23.792;2022-08-19T06:20:14;97367.94;;;21.69;64.01
57086;BME280;42964;42.910;23.792;2022-08-19T06:25:15;97370.53;;;21.86;63.01
57086;BME280;42964;42.910;23.792;2022-08-19T06:30:14;97369.94;;;22.14;61.87
57086;BME280;42964;42.910;23.792;2022-08-19T06:35:14;97369.09;;;22.46;61.32
57086;BME280;42964;42.910;23.792;2022-08-19T06:40:13;97372.47;;;22.65;58.35
57086;BME280;42964;42.910;23.792;2022-08-19T06:45:12;97344.38;;;22.78;57.74
57086;BME280;42964;42.910;23.792;2022-08-19T06:50:11;97376.22;;;23.23;55.97
57086;BME280;42964;42.910;23.792;2022-08-19T06:55:11;97369.84;;;23.41;56.08
57086;BME280;42964;42.910;23.792;2022-08-19T07:00:10;97375.28;;;23.70;55.48
57086;BME280;42964;42.910;23.792;2022-08-19T07:05:11;97377.38;;;23.94;54.37
57086;BME280;42964;42.910;23.792;2022-08-19T07:10:10;97379.47;;;24.17;52.97
57086;BME280;42964;42.910;23.792;2022-08-19T07:15:10;97373.03;;;24.36;52.32
57086;BME280;42964;42.910;23.792;2022-08-19T07:20:10;97364.66;;;24.56;50.68
57086;BME280;42964;42.910;23.792;2022-08-19T07:25:09;97360.78;;;24.89;50.33
57086;BME280;42964;42.910;23.792;2022-08-19T07:30:09;97356.41;;;25.15;49.62
57086;BME280;42964;42.910;23.792;2022-08-19T07:35:10;97354.69;;;25.41;47.49
57086;BME280;42964;42.910;23.792;2022-08-19T07:40:09;97357.81;;;25.73;47.26
57086;BME280;42964;42.910;23.792;2022-08-19T07:45:09;97361.13;;;26.03;46.59
57086;BME280;42964;42.910;23.792;2022-08-19T07:50:09;97358.25;;;26.31;45.68
57086;BME280;42964;42.910;23.792;2022-08-19T07:55:10;97354.44;;;26.60;44.61
57086;BME280;42964;42.910;23.792;2022-08-19T08:00:09;97355.38;;;26.84;43.73
57086;BME280;42964;42.910;23.792;2022-08-19T08:05:09;97347.28;;;27.21;43.41
57086;BME280;42964;42.910;23.792;2022-08-19T08:10:27;97348.66;;;27.62;42.62
57086;BME280;42964;42.910;23.792;2022-08-19T08:15:25;97349.22;;;28.01;40.99
57086;BME280;42964;42.910;23.792;2022-08-19T08:20:24;97340.84;;;28.39;39.74
57086;BME280;42964;42.910;23.792;2022-08-19T08:25:23;97338.75;;;28.65;38.07
57086;BME280;42964;42.910;23.792;2022-08-19T08:30:24;97340.16;;;28.92;36.70
57086;BME280;42964;42.910;23.792;2022-08-19T08:35:24;97326.81;;;29.13;36.61
57086;BME280;42964;42.910;23.792;2022-08-19T08:40:28;97325.78;;;29.37;36.69
57086;BME280;42964;42.910;23.792;2022-08-19T08:45:28;97328.22;;;29.61;35.98
57086;BME280;42964;42.910;23.792;2022-08-19T08:50:34;97326.56;;;29.90;35.82
57086;BME280;42964;42.910;23.792;2022-08-19T08:55:35;97317.09;;;30.07;33.93
57086;BME280;42964;42.910;23.792;2022-08-19T09:00:38;97306.00;;;30.22;33.47
57086;BME280;42964;42.910;23.792;2022-08-19T09:10:48;97308.03;;;30.39;32.96
57086;BME280;42964;42.910;23.792;2022-08-19T09:15:56;97305.28;;;30.50;33.50
57086;BME280;42964;42.910;23.792;2022-08-19T09:20:56;97294.44;;;30.71;33.80
57086;BME280;42964;42.910;23.792;2022-08-19T09:25:55;97290.94;;;30.81;32.45
57086;BME280;42964;42.910;23.792;2022-08-19T09:30:54;97288.56;;;30.87;32.22
57086;BME280;42964;42.910;23.792;2022-08-19T09:36:13;97284.78;;;31.00;31.57
57086;BME280;42964;42.910;23.792;2022-08-19T09:41:15;97280.25;;;31.20;30.44
57086;BME280;42964;42.910;23.792;2022-08-19T09:46:15;97275.69;;;31.39;29.99
57086;BME280;42964;42.910;23.792;2022-08-19T09:51:22;97283.19;;;31.55;30.36
57086;BME280;42964;42.910;23.792;2022-08-19T09:56:22;97263.56;;;31.55;28.70
57086;BME280;42964;42.910;23.792;2022-08-19T10:01:23;97267.50;;;31.61;26.91
57086;BME280;42964;42.910;23.792;2022-08-19T10:06:24;97262.75;;;31.82;27.40
57086;BME280;42964;42.910;23.792;2022-08-19T10:11:24;97254.72;;;31.82;27.23
57086;BME280;42964;42.910;23.792;2022-08-19T10:16:24;97250.31;;;31.91;28.17
57086;BME280;42964;42.910;23.792;2022-08-19T10:21:29;97237.75;;;32.19;27.30
57086;BME280;42964;42.910;23.792;2022-08-19T10:26:35;97230.66;;;32.46;27.77
57086;BME280;42964;42.910;23.792;2022-08-19T10:31:35;97226.63;;;32.59;27.77
57086;BME280;42964;42.910;23.792;2022-08-19T10:36:36;97220.59;;;32.75;27.50
57086;BME280;42964;42.910;23.792;2022-08-19T10:41:37;97221.78;;;32.81;27.46
57086;BME280;42964;42.910;23.792;2022-08-19T10:46:40;97217.53;;;32.88;27.38
57086;BME280;42964;42.910;23.792;2022-08-19T10:51:43;97230.19;;;32.78;26.89
57086;BME280;42964;42.910;23.792;2022-08-19T10:57:01;97219.88;;;32.91;26.69
57086;BME280;42964;42.910;23.792;2022-08-19T11:02:02;97218.31;;;33.24;26.90
57086;BME280;42964;42.910;23.792;2022-08-19T11:07:03;97211.56;;;33.20;26.51
57086;BME280;42964;42.910;23.792;2022-08-19T11:12:03;97199.34;;;33.26;26.13
57086;BME280;42964;42.910;23.792;2022-08-19T11:17:03;97194.22;;;32.97;26.42
57086;BME280;42964;42.910;23.792;2022-08-19T11:22:03;97204.50;;;33.01;26.30
57086;BME280;42964;42.910;23.792;2022-08-19T11:27:05;97204.19;;;33.22;26.37
57086;BME280;42964;42.910;23.792;2022-08-19T11:32:07;97200.19;;;33.26;25.85
57086;BME280;42964;42.910;23.792;2022-08-19T11:37:07;97192.94;;;33.53;25.69
57086;BME280;42964;42.910;23.792;2022-08-19T11:42:07;97177.09;;;33.68;25.51
57086;BME280;42964;42.910;23.792;2022-08-19T11:47:25;97180.84;;;33.49;25.46
57086;BME280;42964;42.910;23.792;2022-08-19T11:52:24;97172.91;;;33.47;25.27
57086;BME280;42964;42.910;23.792;2022-08-19T11:57:24;97169.41;;;33.55;24.89
57086;BME280;42964;42.910;23.792;2022-08-19T12:02:23;97168.34;;;33.74;24.39
57086;BME280;42964;42.910;23.792;2022-08-19T12:07:22;97160.13;;;33.76;24.43
57086;BME280;42964;42.910;23.792;2022-08-19T12:12:20;97152.25;;;33.91;24.39
57086;BME280;42964;42.910;23.792;2022-08-19T12:17:20;97153.25;;;34.24;25.54
57086;BME280;42964;42.910;23.792;2022-08-19T12:22:20;97146.00;;;34.24;23.84
57086;BME280;42964;42.910;23.792;2022-08-19T12:27:20;97136.06;;;34.25;23.64
57086;BME280;42964;42.910;23.792;2022-08-19T12:32:19;97138.25;;;34.13;24.28
57086;BME280;42964;42.910;23.792;2022-08-19T12:37:18;97128.31;;;34.14;23.80
57086;BME280;42964;42.910;23.792;2022-08-19T12:42:17;97122.94;;;34.30;24.05
57086;BME280;42964;42.910;23.792;2022-08-19T12:47:16;97123.63;;;34.32;24.68
57086;BME280;42964;42.910;23.792;2022-08-19T12:52:15;97119.44;;;34.46;25.37
57086;BME280;42964;42.910;23.792;2022-08-19T12:57:14;97122.63;;;34.58;24.19
57086;BME280;42964;42.910;23.792;2022-08-19T13:02:13;97119.25;;;34.39;24.32
57086;BME280;42964;42.910;23.792;2022-08-19T13:07:12;97117.22;;;34.41;24.76
57086;BME280;42964;42.910;23.792;2022-08-19T13:12:11;97126.16;;;34.34;24.43
57086;BME280;42964;42.910;23.792;2022-08-19T13:17:11;97115.72;;;34.47;24.51
57086;BME280;42964;42.910;23.792;2022-08-19T13:22:12;97111.22;;;34.64;24.52
57086;BME280;42964;42.910;23.792;2022-08-19T13:27:11;97106.97;;;34.78;24.08
57086;BME280;42964;42.910;23.792;2022-08-19T13:32:10;97112.84;;;34.98;24.49
57086;BME280;42964;42.910;23.792;2022-08-19T13:37:28;97105.44;;;35.16;24.75
57086;BME280;42964;42.910;23.792;2022-08-19T13:42:43;97102.56;;;35.18;23.96
57086;BME280;42964;42.910;23.792;2022-08-19T13:47:42;97095.31;;;35.18;23.87
57086;BME280;42964;42.910;23.792;2022-08-19T13:52:43;97087.69;;;35.22;24.26
57086;BME280;42964;42.910;23.792;2022-08-19T13:57:42;97099.03;;;34.84;24.34
57086;BME280;42964;42.910;23.792;2022-08-19T14:02:41;97103.13;;;34.72;24.06
57086;BME280;42964;42.910;23.792;2022-08-19T14:07:41;97080.84;;;34.86;24.50
57086;BME280;42964;42.910;23.792;2022-08-19T14:12:41;97080.69;;;34.88;24.16
57086;BME280;42964;42.910;23.792;2022-08-19T14:17:42;97088.47;;;34.66;24.69
57086;BME280;42964;42.910;23.792;2022-08-19T14:22:42;97086.25;;;34.70;24.63
57086;BME280;42964;42.910;23.792;2022-08-19T14:27:41;97086.56;;;34.59;23.32
57086;BME280;42964;42.910;23.792;2022-08-19T14:32:40;97071.59;;;34.56;24.35
57086;BME280;42964;42.910;23.792;2022-08-19T14:37:42;97080.19;;;34.51;24.81
57086;BME280;42964;42.910;23.792;2022-08-19T14:42:42;97073.47;;;34.47;24.69
57086;BME280;42964;42.910;23.792;2022-08-19T14:47:41;97072.09;;;34.51;24.81
57086;BME280;42964;42.910;23.792;2022-08-19T14:52:40;97061.50;;;34.58;25.13
57086;BME280;42964;42.910;23.792;2022-08-19T14:57:43;97060.47;;;34.51;24.35
57086;BME280;42964;42.910;23.792;2022-08-19T15:02:43;97056.13;;;34.50;24.50
57086;BME280;42964;42.910;23.792;2022-08-19T15:07:45;97056.94;;;34.42;24.64
57086;BME280;42964;42.910;23.792;2022-08-19T15:12:44;97052.94;;;34.22;24.94
57086;BME280;42964;42.910;23.792;2022-08-19T15:17:44;97060.78;;;34.07;25.56
57086;BME280;42964;42.910;23.792;2022-08-19T15:22:42;97055.69;;;33.87;25.28
57086;BME280;42964;42.910;23.792;2022-08-19T15:27:42;97045.47;;;33.99;25.24
57086;BME280;42964;42.910;23.792;2022-08-19T15:32:41;97047.81;;;33.94;25.21
57086;BME280;42964;42.910;23.792;2022-08-19T15:37:40;97042.75;;;33.83;25.51
57086;BME280;42964;42.910;23.792;2022-08-19T15:42:39;97042.69;;;33.66;25.52
57086;BME280;42964;42.910;23.792;2022-08-19T15:47:41;97039.78;;;33.52;25.30
57086;BME280;42964;42.910;23.792;2022-08-19T15:52:49;97038.09;;;33.51;25.39
57086;BME280;42964;42.910;23.792;2022-08-19T15:57:49;97029.50;;;33.47;25.31
57086;BME280;42964;42.910;23.792;2022-08-19T16:03:10;97035.75;;;33.56;25.34
57086;BME280;42964;42.910;23.792;2022-08-19T16:08:29;97033.88;;;33.48;25.27
57086;BME280;42964;42.910;23.792;2022-08-19T16:13:29;97036.56;;;33.40;26.07
57086;BME280;42964;42.910;23.792;2022-08-19T16:18:28;97040.16;;;33.14;26.89
57086;BME280;42964;42.910;23.792;2022-08-19T16:23:28;97044.34;;;32.91;27.70
57086;BME280;42964;42.910;23.792;2022-08-19T16:28:27;97035.81;;;32.69;28.25
57086;BME280;42964;42.910;23.792;2022-08-19T16:33:26;97051.72;;;32.45;28.57
57086;BME280;42964;42.910;23.792;2022-08-19T16:38:25;97051.59;;;32.28;29.03
57086;BME280;42964;42.910;23.792;2022-08-19T16:43:26;97048.63;;;32.13;28.86
57086;BME280;42964;42.910;23.792;2022-08-19T16:48:28;97057.03;;;32.00;29.42
57086;BME280;42964;42.910;23.792;2022-08-19T16:53:27;97061.75;;;31.71;29.69
57086;BME280;42964;42.910;23.792;2022-08-19T16:58:28;97069.47;;;31.56;29.89
57086;BME280;42964;42.910;23.792;2022-08-19T17:03:29;97072.06;;;31.38;30.33
57086;BME280;42964;42.910;23.792;2022-08-19T17:08:29;97075.69;;;31.19;30.64
57086;BME280;42964;42.910;23.792;2022-08-19T17:13:29;97077.31;;;30.92;31.61
57086;BME280;42964;42.910;23.792;2022-08-19T17:18:28;97089.66;;;30.66;32.87
57086;BME280;42964;42.910;23.792;2022-08-19T17:23:30;97090.75;;;30.34;33.46
57086;BME280;42964;42.910;23.792;2022-08-19T17:28:29;97098.09;;;30.03;33.77
57086;BME280;42964;42.910;23.792;2022-08-19T17:33:29;97099.84;;;29.73;34.73
57086;BME280;42964;42.910;23.792;2022-08-19T17:38:28;97100.59;;;29.44;35.55
57086;BME280;42964;42.910;23.792;2022-08-19T17:43:27;97101.44;;;29.14;35.99
57086;BME280;42964;42.910;23.792;2022-08-19T17:48:26;97115.09;;;28.90;36.18
57086;BME280;42964;42.910;23.792;2022-08-19T17:53:25;97120.09;;;28.62;36.99
57086;BME280;42964;42.910;23.792;2022-08-19T17:58:24;97128.72;;;28.34;37.07
57086;BME280;42964;42.910;23.792;2022-08-19T18:03:23;97129.06;;;28.08;38.15
57086;BME280;42964;42.910;23.792;2022-08-19T18:08:22;97137.91;;;27.86;39.61
57086;BME280;42964;42.910;23.792;2022-08-19T18:13:21;97145.34;;;27.60;41.03
57086;BME280;42964;42.910;23.792;2022-08-19T18:18:20;97146.31;;;27.36;41.08
57086;BME280;42964;42.910;23.792;2022-08-19T18:23:19;97148.72;;;27.17;41.41
57086;BME280;42964;42.910;23.792;2022-08-19T18:28:18;97150.00;;;27.00;41.88
57086;BME280;42964;42.910;23.792;2022-08-19T18:33:17;97152.38;;;26.81;41.99
57086;BME280;42964;42.910;23.792;2022-08-19T18:38:18;97147.59;;;26.62;42.30
57086;BME280;42964;42.910;23.792;2022-08-19T18:43:35;97162.53;;;26.40;42.57
57086;BME280;42964;42.910;23.792;2022-08-19T18:48:53;97162.91;;;26.23;43.22
57086;BME280;42964;42.910;23.792;2022-08-19T18:54:05;97164.28;;;26.04;43.18
57086;BME280;42964;42.910;23.792;2022-08-19T18:59:04;97166.22;;;25.89;43.37
57086;BME280;42964;42.910;23.792;2022-08-19T19:04:06;97173.50;;;25.74;44.16
57086;BME280;42964;42.910;23.792;2022-08-19T19:09:17;97173.84;;;25.57;44.36
57086;BME280;42964;42.910;23.792;2022-08-19T19:14:23;97178.41;;;25.42;44.76
57086;BME280;42964;42.910;23.792;2022-08-19T19:19:23;97188.19;;;25.29;45.43
57086;BME280;42964;42.910;23.792;2022-08-19T19:24:27;97187.69;;;25.11;45.91
57086;BME280;42964;42.910;23.792;2022-08-19T19:29:30;97194.56;;;24.88;46.82
57086;BME280;42964;42.910;23.792;2022-08-19T19:34:29;97196.75;;;24.81;47.01
57086;BME280;42964;42.910;23.792;2022-08-19T19:39:28;97204.56;;;24.70;47.46
57086;BME280;42964;42.910;23.792;2022-08-19T19:44:27;97211.66;;;24.57;47.82
57086;BME280;42964;42.910;23.792;2022-08-19T19:49:26;97220.00;;;24.51;48.35
57086;BME280;42964;42.910;23.792;2022-08-19T19:54:30;97223.06;;;24.44;48.53
57086;BME280;42964;42.910;23.792;2022-08-19T19:59:29;97221.97;;;24.34;48.71
57086;BME280;42964;42.910;23.792;2022-08-19T20:04:29;97228.63;;;24.27;49.00
57086;BME280;42964;42.910;23.792;2022-08-19T20:09:28;97225.78;;;24.16;49.54
57086;BME280;42964;42.910;23.792;2022-08-19T20:14:31;97234.78;;;24.13;49.86
57086;BME280;42964;42.910;23.792;2022-08-19T20:19:31;97247.94;;;24.00;50.35
57086;BME280;42964;42.910;23.792;2022-08-19T20:24:33;97246.28;;;23.85;50.29
57086;BME280;42964;42.910;23.792;2022-08-19T20:29:33;97258.22;;;23.78;51.01
57086;BME280;42964;42.910;23.792;2022-08-19T20:34:33;97259.16;;;23.62;51.45
57086;BME280;42964;42.910;23.792;2022-08-19T20:39:32;97272.13;;;23.53;51.90
57086;BME280;42964;42.910;23.792;2022-08-19T20:44:31;97267.03;;;23.50;52.84
57086;BME280;42964;42.910;23.792;2022-08-19T20:49:31;97265.09;;;23.37;53.50
57086;BME280;42964;42.910;23.792;2022-08-19T20:54:30;97269.63;;;23.35;54.43
57086;BME280;42964;42.910;23.792;2022-08-19T20:59:29;97282.25;;;23.30;55.23
57086;BME280;42964;42.910;23.792;2022-08-19T21:04:28;97283.69;;;23.21;55.46
57086;BME280;42964;42.910;23.792;2022-08-19T21:09:27;97277.22;;;23.11;56.31
57086;BME280;42964;42.910;23.792;2022-08-19T21:14:26;97278.63;;;23.02;56.23
57086;BME280;42964;42.910;23.792;2022-08-19T21:19:25;97278.41;;;22.91;57.43
57086;BME280;42964;42.910;23.792;2022-08-19T21:24:24;97276.22;;;22.68;59.01
57086;BME280;42964;42.910;23.792;2022-08-19T21:29:24;97266.16;;;22.58;59.70
57086;BME280;42964;42.910;23.792;2022-08-19T21:34:23;97285.34;;;22.62;59.60
57086;BME280;42964;42.910;23.792;2022-08-19T21:39:22;97285.53;;;22.59;59.17
57086;BME280;42964;42.910;23.792;2022-08-19T21:44:21;97277.91;;;22.53;58.83
57086;BME280;42964;42.910;23.792;2022-08-19T21:49:20;97284.16;;;22.36;59.38
57086;BME280;42964;42.910;23.792;2022-08-19T21:54:19;97287.25;;;22.28;59.56
57086;BME280;42964;42.910;23.792;2022-08-19T21:59:18;97279.00;;;22.18;59.47
57086;BME280;42964;42.910;23.792;2022-08-19T22:04:19;97273.94;;;22.14;59.62
57086;BME280;42964;42.910;23.792;2022-08-19T22:09:18;97276.66;;;22.12;60.44
57086;BME280;42964;42.910;23.792;2022-08-19T22:14:17;97279.19;;;21.98;61.55
57086;BME280;42964;42.910;23.792;2022-08-19T22:19:16;97276.72;;;21.95;61.17
57086;BME280;42964;42.910;23.792;2022-08-19T22:24:15;97283.81;;;21.94;61.08
57086;BME280;42964;42.910;23.792;2022-08-19T22:29:14;97274.47;;;21.87;61.81
57086;BME280;42964;42.910;23.792;2022-08-19T22:34:14;97279.06;;;21.68;62.95
57086;BME280;42964;42.910;23.792;2022-08-19T22:39:13;97274.59;;;21.52;63.32
57086;BME280;42964;42.910;23.792;2022-08-19T22:44:12;97257.47;;;21.44;64.00
57086;BME280;42964;42.910;23.792;2022-08-19T22:49:11;97244.81;;;21.33;64.75
57086;BME280;42964;42.910;23.792;2022-08-19T22:54:09;97238.53;;;21.18;65.16
57086;BME280;42964;42.910;23.792;2022-08-19T22:59:09;97217.06;;;21.08;65.04
57086;BME280;42964;42.910;23.792;2022-08-19T23:04:08;97217.84;;;21.10;65.57
57086;BME280;42964;42.910;23.792;2022-08-19T23:09:08;97220.78;;;21.04;65.52
57086;BME280;42964;42.910;23.792;2022-08-19T23:14:07;97220.94;;;21.01;65.74
57086;BME280;42964;42.910;23.792;2022-08-19T23:19:06;97220.16;;;20.99;66.03
57086;BME280;42964;42.910;23.792;2022-08-19T23:24:05;97216.91;;;20.94;66.16
57086;BME280;42964;42.910;23.792;2022-08-19T23:29:04;97210.69;;;20.95;66.27
57086;BME280;42964;42.910;23.792;2022-08-19T23:34:21;97205.66;;;20.90;66.26
57086;BME280;42964;42.910;23.792;2022-08-19T23:39:20;97208.34;;;20.89;66.37
57086;BME280;42964;42.910;23.792;2022-08-19T23:44:19;97204.19;;;20.85;66.95
57086;BME280;42964;42.910;23.792;2022-08-19T23:49:18;97208.22;;;20.75;67.05
57086;BME280;42964;42.910;23.792;2022-08-19T23:54:17;97211.09;;;20.70;66.63
57086;BME280;42964;42.910;23.792;2022-08-19T23:59:16;97211.47;;;20.62;66.70
